Time;durP1;ratioP1;P1;durP2;ratioP2;P2;SDS_P1;SDS_P2;PMS_P1;PMS_P2;Temp;Humidity;BMP_temperature;BMP_pressure;BME280_temperature;BME280_humidity;BME280_pressure;Samples;Min_cycle;Max_cycle;Signal;HPM_P1;HPM_P2
2021/08/21 00:00:46;;;;;;;14.73;5.82;;;15.00;98.10;;;;;;5027961;28;20410;-67
2021/08/21 00:03:12;;;;;;;11.10;5.30;;;15.00;98.10;;;;;;5028006;28;20048;-68
2021/08/21 00:05:38;;;;;;;8.43;5.43;;;14.90;98.10;;;;;;5028633;28;20033;-66
2021/08/21 00:08:05;;;;;;;8.32;5.55;;;15.00;98.10;;;;;;5027408;28;20045;-66
2021/08/21 00:10:32;;;;;;;7.93;4.97;;;14.90;98.20;;;;;;5029123;28;20214;-67
2021/08/21 00:12:58;;;;;;;11.82;5.65;;;14.90;98.10;;;;;;5028627;28;20021;-68
2021/08/21 00:15:24;;;;;;;7.65;5.22;;;14.90;98.20;;;;;;5027648;28;20100;-67
2021/08/21 00:17:50;;;;;;;8.30;6.20;;;14.90;98.20;;;;;;5029370;28;20038;-66
2021/08/21 00:20:16;;;;;;;7.93;6.20;;;14.90;98.30;;;;;;5028259;28;20120;-66
2021/08/21 00:22:42;;;;;;;11.07;7.18;;;14.80;98.30;;;;;;5030268;28;20037;-66
2021/08/21 00:25:08;;;;;;;8.98;6.57;;;14.80;98.30;;;;;;5029118;28;20027;-66
2021/08/21 00:27:34;;;;;;;10.43;7.43;;;14.80;98.30;;;;;;5026312;28;20073;-67
2021/08/21 00:30:00;;;;;;;13.82;7.00;;;14.80;98.30;;;;;;5028152;28;20490;-66
2021/08/21 00:32:26;;;;;;;11.00;7.10;;;14.80;98.30;;;;;;5027505;28;20037;-66
2021/08/21 00:34:51;;;;;;;9.50;6.28;;;14.70;98.20;;;;;;5029275;28;20049;-66
2021/08/21 00:37:17;;;;;;;9.40;6.40;;;14.70;98.20;;;;;;5026729;28;20033;-67
2021/08/21 00:39:43;;;;;;;11.05;6.45;;;14.70;98.40;;;;;;5027352;28;20483;-69
2021/08/21 00:42:08;;;;;;;10.98;6.30;;;14.70;98.30;;;;;;5029597;28;20021;-67
2021/08/21 00:44:35;;;;;;;9.90;6.00;;;14.70;98.30;;;;;;5027209;28;20160;-67
2021/08/21 00:47:12;;;;;;;9.27;6.07;;;14.70;98.30;;;;;;5027840;28;20087;-66
2021/08/21 00:49:46;;;;;;;9.80;6.15;;;14.60;98.40;;;;;;5029016;28;20039;-69
2021/08/21 00:52:15;;;;;;;11.18;6.68;;;14.60;98.50;;;;;;5027049;28;20037;-68
2021/08/21 00:54:42;;;;;;;11.05;6.25;;;14.60;98.50;;;;;;5027599;28;20229;-69
2021/08/21 00:57:10;;;;;;;11.55;6.35;;;14.60;98.50;;;;;;5028183;28;20399;-67
2021/08/21 00:59:37;;;;;;;7.60;5.40;;;14.60;98.50;;;;;;5016179;28;20029;-67
2021/08/21 01:02:07;;;;;;;8.65;6.05;;;14.60;98.50;;;;;;5027286;28;20026;-67
2021/08/21 01:04:34;;;;;;;9.65;6.25;;;14.60;98.40;;;;;;5028080;28;20051;-67
2021/08/21 01:07:02;;;;;;;11.88;6.63;;;14.60;98.30;;;;;;5027646;28;20061;-68
2021/08/21 01:09:27;;;;;;;10.35;6.05;;;14.60;98.20;;;;;;5028202;28;20109;-67
2021/08/21 01:11:53;;;;;;;10.98;6.53;;;14.60;98.20;;;;;;5025700;28;22624;-67
2021/08/21 01:14:19;;;;;;;10.38;6.55;;;14.60;98.10;;;;;;5027885;28;20037;-67
2021/08/21 01:16:45;;;;;;;9.05;6.28;;;14.50;98.20;;;;;;5027851;28;20025;-67
2021/08/21 01:19:12;;;;;;;10.10;6.22;;;14.50;98.40;;;;;;5028253;28;21346;-68
2021/08/21 01:21:38;;;;;;;9.50;6.60;;;14.50;98.40;;;;;;5029163;28;20522;-68
2021/08/21 01:24:05;;;;;;;9.23;5.65;;;14.50;98.40;;;;;;5027095;28;20029;-68
2021/08/21 01:26:31;;;;;;;7.53;5.90;;;14.40;98.50;;;;;;5026817;28;20037;-68
2021/08/21 01:28:57;;;;;;;8.70;5.68;;;14.40;98.60;;;;;;5026933;28;20387;-67
2021/08/21 01:31:23;;;;;;;8.05;5.50;;;14.40;98.50;;;;;;5025679;28;20045;-67
2021/08/21 01:33:49;;;;;;;7.50;5.97;;;14.40;98.40;;;;;;5028645;28;20025;-67
2021/08/21 01:36:14;;;;;;;9.38;5.68;;;14.40;98.50;;;;;;5028664;28;20533;-68
2021/08/21 01:38:57;;;;;;;8.85;5.63;;;14.40;98.40;;;;;;5027870;28;20041;-68
2021/08/21 01:41:22;;;;;;;8.25;5.80;;;14.40;98.40;;;;;;5027798;28;20036;-67
2021/08/21 01:43:48;;;;;;;8.82;5.72;;;14.30;98.30;;;;;;5026146;28;20302;-68
2021/08/21 01:46:14;;;;;;;9.95;6.25;;;14.30;98.30;;;;;;5026220;28;20391;-67
2021/08/21 01:48:39;;;;;;;9.13;6.20;;;14.30;98.30;;;;;;5026685;28;20111;-67
2021/08/21 01:51:05;;;;;;;10.48;6.40;;;14.30;98.40;;;;;;5027722;28;20317;-67
2021/08/21 01:53:31;;;;;;;8.57;5.88;;;14.30;98.60;;;;;;5029418;28;20398;-68
2021/08/21 01:55:56;;;;;;;8.93;6.05;;;14.30;98.70;;;;;;5026297;28;20451;-66
2021/08/21 01:58:22;;;;;;;8.02;5.90;;;14.20;98.50;;;;;;5027875;28;20039;-68
2021/08/21 02:00:49;;;;;;;10.55;6.03;;;14.20;98.60;;;;;;5025733;28;20470;-67
2021/08/21 02:03:17;;;;;;;7.72;5.95;;;14.20;98.40;;;;;;5026852;28;20029;-67
2021/08/21 02:05:43;;;;;;;10.02;6.38;;;14.20;98.50;;;;;;5026690;28;20028;-68
2021/08/21 02:08:09;;;;;;;8.25;5.75;;;14.20;98.50;;;;;;5025915;28;20037;-67
2021/08/21 02:10:35;;;;;;;9.27;5.72;;;14.20;98.50;;;;;;5027714;28;20100;-67
2021/08/21 02:13:01;;;;;;;8.70;6.35;;;14.10;98.50;;;;;;5027666;28;20475;-66
2021/08/21 02:15:26;;;;;;;8.45;6.13;;;14.20;98.40;;;;;;5026333;28;20040;-66
2021/08/21 02:17:52;;;;;;;8.07;5.97;;;14.10;98.50;;;;;;5025815;28;20506;-67
2021/08/21 02:20:18;;;;;;;11.07;5.85;;;14.10;98.40;;;;;;5026849;28;20037;-67
2021/08/21 02:22:45;;;;;;;9.45;6.53;;;14.10;98.50;;;;;;5026983;28;20017;-67
2021/08/21 02:25:12;;;;;;;9.93;6.70;;;14.10;98.50;;;;;;5029284;28;20451;-66
2021/08/21 02:27:43;;;;;;;7.65;5.70;;;14.10;98.70;;;;;;5025124;28;20108;-67
2021/08/21 02:30:09;;;;;;;10.15;6.57;;;14.00;98.50;;;;;;5028224;28;20025;-66
2021/08/21 02:32:36;;;;;;;8.88;6.45;;;14.00;98.50;;;;;;5026679;28;20196;-66
2021/08/21 02:35:03;;;;;;;9.05;6.38;;;14.00;98.60;;;;;;5025165;28;20029;-67
2021/08/21 02:37:29;;;;;;;11.15;6.07;;;14.00;98.60;;;;;;5027644;28;20029;-67
2021/08/21 02:39:55;;;;;;;9.60;6.40;;;14.00;98.70;;;;;;5027301;28;20037;-66
2021/08/21 02:42:21;;;;;;;10.38;6.55;;;14.00;98.60;;;;;;5027544;28;20074;-67
2021/08/21 02:44:47;;;;;;;10.27;6.30;;;14.00;98.70;;;;;;5026633;28;20641;-67
2021/08/21 02:47:13;;;;;;;8.52;6.30;;;14.00;98.70;;;;;;5009954;28;20140;-67
2021/08/21 02:49:38;;;;;;;8.07;5.72;;;14.00;98.80;;;;;;5026219;28;20565;-66
2021/08/21 02:52:04;;;;;;;9.15;6.55;;;13.90;98.60;;;;;;5026106;28;20029;-66
2021/08/21 02:54:31;;;;;;;10.98;6.60;;;13.90;98.60;;;;;;5026050;28;20118;-66
2021/08/21 02:56:57;;;;;;;11.10;6.20;;;13.80;98.70;;;;;;5027250;28;20321;-67
2021/08/21 02:59:22;;;;;;;10.05;6.93;;;13.90;98.80;;;;;;5026485;28;20198;-66
2021/08/21 03:01:48;;;;;;;10.93;6.80;;;13.90;98.80;;;;;;5026999;28;20083;-66
2021/08/21 03:04:14;;;;;;;11.00;6.75;;;13.90;98.70;;;;;;5026988;28;20036;-67
2021/08/21 03:06:39;;;;;;;10.85;6.82;;;13.90;98.70;;;;;;5026575;28;20080;-68
2021/08/21 03:09:05;;;;;;;11.73;6.63;;;13.90;98.70;;;;;;5026830;28;20022;-67
2021/08/21 03:11:31;;;;;;;10.15;6.32;;;13.90;98.70;;;;;;5025701;28;20084;-67
2021/08/21 03:13:56;;;;;;;11.00;6.13;;;13.90;98.70;;;;;;5026756;28;20025;-67
2021/08/21 03:16:22;;;;;;;7.53;5.68;;;13.80;98.60;;;;;;5026933;28;20029;-67
2021/08/21 03:18:48;;;;;;;8.88;6.45;;;13.80;98.60;;;;;;5027311;28;20045;-66
2021/08/21 03:21:15;;;;;;;8.98;6.35;;;13.80;98.70;;;;;;5024205;28;20104;-66
2021/08/21 03:23:41;;;;;;;8.95;6.63;;;13.80;98.70;;;;;;4991922;28;20064;-66
2021/08/21 03:26:07;;;;;;;9.05;5.97;;;13.80;98.60;;;;;;5023712;28;20527;-66
2021/08/21 03:28:33;;;;;;;10.63;6.97;;;13.80;98.70;;;;;;5025249;28;20109;-66
2021/08/21 03:30:59;;;;;;;8.55;6.35;;;13.80;98.70;;;;;;5026880;28;20483;-68
2021/08/21 03:33:24;;;;;;;9.57;6.60;;;13.80;98.60;;;;;;5026526;28;20087;-66
2021/08/21 03:35:51;;;;;;;10.05;7.00;;;13.80;98.60;;;;;;5026863;28;20044;-66
2021/08/21 03:38:16;;;;;;;9.55;6.13;;;13.80;98.60;;;;;;5026443;28;20463;-66
2021/08/21 03:40:42;;;;;;;10.35;6.28;;;13.80;98.60;;;;;;5025482;28;20067;-67
2021/08/21 03:43:08;;;;;;;10.90;6.53;;;13.80;98.50;;;;;;5027737;28;20041;-68
2021/08/21 03:45:34;;;;;;;10.98;6.25;;;13.90;98.60;;;;;;5026817;28;20033;-67
2021/08/21 03:47:59;;;;;;;8.82;6.05;;;13.90;98.50;;;;;;5024371;28;20600;-67
2021/08/21 03:50:25;;;;;;;8.63;6.18;;;13.90;98.60;;;;;;5024768;28;20037;-66
2021/08/21 03:52:51;;;;;;;11.32;6.40;;;13.90;98.60;;;;;;5025491;28;20033;-66
2021/08/21 03:55:17;;;;;;;9.50;6.25;;;14.00;98.70;;;;;;5024543;28;20056;-67
2021/08/21 03:57:42;;;;;;;9.48;6.45;;;14.00;98.70;;;;;;5026162;28;20029;-67
2021/08/21 04:00:09;;;;;;;8.60;5.93;;;14.00;98.80;;;;;;5026528;28;20375;-67
2021/08/21 04:02:35;;;;;;;10.30;6.38;;;14.00;98.80;;;;;;5025030;28;20029;-69
2021/08/21 04:05:00;;;;;;;8.88;6.22;;;14.00;98.80;;;;;;5025672;28;20025;-68
2021/08/21 04:07:26;;;;;;;9.68;5.80;;;14.00;98.80;;;;;;5029281;28;20061;-67
2021/08/21 04:09:52;;;;;;;9.38;6.57;;;14.10;98.80;;;;;;5030182;28;20037;-67
2021/08/21 04:12:18;;;;;;;8.80;6.65;;;14.10;98.80;;;;;;5029737;28;20049;-68
2021/08/21 04:14:45;;;;;;;9.23;5.90;;;14.10;98.90;;;;;;5030364;28;20548;-67
2021/08/21 04:17:11;;;;;;;9.35;6.63;;;14.10;98.80;;;;;;5029828;28;20040;-67
2021/08/21 04:19:36;;;;;;;9.13;6.32;;;14.20;98.80;;;;;;5030905;28;20407;-66
2021/08/21 04:22:02;;;;;;;9.38;6.45;;;14.20;98.80;;;;;;5028833;28;20033;-66
2021/08/21 04:24:28;;;;;;;8.20;6.32;;;14.20;98.80;;;;;;5028359;28;20041;-67
2021/08/21 04:26:54;;;;;;;8.52;6.40;;;14.30;98.80;;;;;;5029984;28;20029;-68
2021/08/21 04:29:20;;;;;;;9.10;6.78;;;14.30;98.80;;;;;;5030529;28;20033;-66
2021/08/21 04:31:46;;;;;;;8.25;6.10;;;14.30;98.80;;;;;;5038041;28;20088;-67
2021/08/21 04:34:11;;;;;;;7.97;6.10;;;14.30;98.80;;;;;;5029056;28;20029;-68
2021/08/21 04:36:37;;;;;;;9.32;6.40;;;14.30;98.80;;;;;;5030536;28;20122;-66
2021/08/21 04:39:03;;;;;;;9.60;6.57;;;14.30;98.90;;;;;;5029353;28;20040;-66
2021/08/21 04:41:29;;;;;;;8.80;6.13;;;14.30;98.90;;;;;;5028490;28;20025;-68
2021/08/21 04:43:55;;;;;;;9.27;6.07;;;14.30;98.90;;;;;;5029615;28;20025;-67
2021/08/21 04:46:20;;;;;;;7.93;5.43;;;14.30;98.90;;;;;;5029837;28;20045;-67
2021/08/21 04:48:46;;;;;;;10.25;7.40;;;14.30;98.90;;;;;;5028973;28;20422;-70
2021/08/21 04:51:12;;;;;;;10.50;6.13;;;14.20;98.90;;;;;;5029221;28;20103;-69
2021/08/21 04:53:38;;;;;;;10.32;6.68;;;14.20;98.90;;;;;;5029948;28;20033;-67
2021/08/21 04:56:05;;;;;;;8.60;6.32;;;14.20;99.00;;;;;;5029842;28;20530;-67
2021/08/21 04:58:31;;;;;;;9.45;6.13;;;14.20;99.00;;;;;;5027384;28;20025;-66
2021/08/21 05:00:56;;;;;;;8.88;6.45;;;14.20;99.10;;;;;;5028630;28;20032;-66
2021/08/21 05:03:22;;;;;;;9.02;6.70;;;14.20;99.10;;;;;;5029301;28;20026;-67
2021/08/21 05:05:47;;;;;;;9.55;6.30;;;14.20;99.00;;;;;;5027516;28;20026;-66
2021/08/21 05:08:13;;;;;;;10.57;6.28;;;14.20;99.10;;;;;;5028862;28;20038;-66
2021/08/21 05:10:39;;;;;;;8.30;6.15;;;14.20;99.10;;;;;;5027614;28;20033;-67
2021/08/21 05:13:05;;;;;;;8.70;6.22;;;14.20;99.30;;;;;;5030020;28;20391;-66
2021/08/21 05:15:33;;;;;;;7.63;5.63;;;14.20;99.10;;;;;;5028365;28;20034;-68
2021/08/21 05:18:03;;;;;;;9.50;6.55;;;14.30;99.10;;;;;;5027385;28;20592;-68
2021/08/21 05:20:40;;;;;;;10.23;6.15;;;14.30;99.10;;;;;;5027856;28;20037;-66
2021/08/21 05:23:08;;;;;;;10.25;7.18;;;14.30;99.00;;;;;;5028795;28;20104;-66
2021/08/21 05:25:39;;;;;;;9.63;6.88;;;14.40;99.00;;;;;;5029129;28;20576;-67
2021/08/21 05:28:05;;;;;;;11.13;6.65;;;14.40;99.00;;;;;;5028221;28;21200;-68
2021/08/21 05:30:38;;;;;;;10.38;7.03;;;14.40;99.10;;;;;;5028371;28;20041;-67
2021/08/21 05:33:16;;;;;;;8.30;6.28;;;14.50;99.10;;;;;;5028341;28;20033;-66
2021/08/21 05:35:43;;;;;;;8.80;6.25;;;14.50;99.10;;;;;;5028158;28;20552;-67
2021/08/21 05:38:09;;;;;;;8.27;5.45;;;14.60;99.10;;;;;;5028773;28;20057;-66
2021/08/21 05:40:35;;;;;;;10.30;6.38;;;14.60;99.10;;;;;;5027383;28;20025;-66
2021/08/21 05:43:01;;;;;;;9.90;6.32;;;14.70;98.90;;;;;;5029503;28;20122;-66
2021/08/21 05:45:27;;;;;;;9.38;6.32;;;14.70;99.00;;;;;;5029246;28;20026;-67
2021/08/21 05:47:53;;;;;;;9.15;6.10;;;14.70;98.90;;;;;;5029002;28;20036;-66
2021/08/21 05:50:21;;;;;;;9.65;6.47;;;14.80;98.80;;;;;;5028371;28;20022;-67
2021/08/21 05:52:47;;;;;;;7.90;5.95;;;14.90;98.70;;;;;;5028349;28;20038;-68
2021/08/21 05:55:13;;;;;;;7.60;5.10;;;14.90;98.60;;;;;;5029708;28;20021;-67
2021/08/21 05:57:39;;;;;;;8.68;5.35;;;15.00;98.70;;;;;;5028469;28;20048;-68
2021/08/21 06:00:06;;;;;;;7.65;5.10;;;15.00;98.60;;;;;;5028112;28;20113;-66
2021/08/21 06:02:32;;;;;;;8.57;5.20;;;15.10;98.40;;;;;;5029051;28;20033;-67
2021/08/21 06:04:57;;;;;;;8.50;4.30;;;15.20;98.40;;;;;;5029030;28;20021;-67
2021/08/21 06:07:23;;;;;;;5.78;3.78;;;15.20;98.30;;;;;;5027240;28;20136;-68
2021/08/21 06:09:49;;;;;;;6.35;4.05;;;15.30;98.30;;;;;;5028041;28;20056;-67
2021/08/21 06:12:15;;;;;;;6.13;3.58;;;15.30;98.20;;;;;;5030390;28;20084;-71
2021/08/21 06:14:41;;;;;;;5.38;3.13;;;15.40;98.00;;;;;;5029097;28;20030;-68
2021/08/21 06:17:07;;;;;;;4.38;2.40;;;15.50;97.80;;;;;;5027674;28;20029;-69
2021/08/21 06:19:33;;;;;;;6.45;2.80;;;15.50;97.70;;;;;;5025407;28;20040;-66
2021/08/21 06:21:59;;;;;;;5.30;2.90;;;15.60;97.40;;;;;;5026827;28;20337;-67
2021/08/21 06:24:25;;;;;;;4.82;2.63;;;15.70;97.30;;;;;;5028601;28;20030;-68
2021/08/21 06:26:50;;;;;;;4.88;2.58;;;15.70;97.20;;;;;;5027434;28;20033;-67
2021/08/21 06:29:16;;;;;;;5.47;2.85;;;15.80;97.00;;;;;;5027730;28;20040;-67
2021/08/21 06:31:42;;;;;;;5.35;2.70;;;15.80;96.90;;;;;;5027019;28;20116;-68
2021/08/21 06:34:07;;;;;;;4.85;2.60;;;15.90;96.90;;;;;;5027750;28;20052;-68
2021/08/21 06:36:33;;;;;;;4.22;2.80;;;15.90;96.90;;;;;;5011200;28;20102;-73
2021/08/21 06:38:59;;;;;;;4.38;2.67;;;16.00;96.70;;;;;;5028428;28;20125;-72
2021/08/21 06:41:24;;;;;;;6.40;2.85;;;16.00;96.60;;;;;;5031170;28;20030;-72
2021/08/21 06:43:50;;;;;;;4.22;2.42;;;16.10;96.60;;;;;;5030794;28;20057;-73
2021/08/21 06:46:16;;;;;;;3.42;2.20;;;16.10;96.50;;;;;;5030774;28;20026;-72
2021/08/21 06:48:42;;;;;;;3.45;2.25;;;16.10;96.50;;;;;;5027084;28;20738;-71
2021/08/21 06:51:07;;;;;;;4.63;2.70;;;16.20;96.40;;;;;;5028102;28;20032;-67
2021/08/21 06:53:35;;;;;;;4.13;2.30;;;16.30;96.30;;;;;;5009701;28;20037;-67
2021/08/21 06:56:01;;;;;;;5.07;2.50;;;16.30;96.20;;;;;;5029001;28;20112;-66
2021/08/21 06:58:28;;;;;;;6.78;2.70;;;16.30;96.10;;;;;;5024883;28;20055;-66
2021/08/21 07:00:55;;;;;;;4.22;2.80;;;16.40;96.10;;;;;;5025595;28;20088;-67
2021/08/21 07:03:21;;;;;;;4.22;2.33;;;16.40;95.90;;;;;;5026189;28;20031;-67
2021/08/21 07:05:47;;;;;;;5.45;2.83;;;16.50;95.90;;;;;;5026753;28;20030;-71
2021/08/21 07:08:12;;;;;;;5.85;2.60;;;16.40;95.30;;;;;;5027694;28;20025;-71
2021/08/21 07:10:39;;;;;;;6.03;2.25;;;16.50;95.60;;;;;;5025277;28;20041;-68
2021/08/21 07:13:05;;;;;;;4.63;2.15;;;16.50;95.30;;;;;;5023921;28;20072;-67
2021/08/21 07:15:31;;;;;;;3.65;1.95;;;16.50;95.30;;;;;;5012118;28;20120;-66
2021/08/21 07:17:57;;;;;;;3.30;2.20;;;16.60;95.30;;;;;;5024539;28;20104;-66
2021/08/21 07:20:23;;;;;;;3.95;2.05;;;16.70;95.10;;;;;;5026028;28;20399;-67
2021/08/21 07:22:48;;;;;;;4.45;2.25;;;16.70;95.00;;;;;;5028671;28;20034;-70
2021/08/21 07:25:14;;;;;;;3.00;2.22;;;16.70;94.50;;;;;;5027268;28;20025;-71
2021/08/21 07:27:40;;;;;;;3.88;1.92;;;16.80;94.40;;;;;;5028475;28;20345;-70
2021/08/21 07:30:07;;;;;;;3.80;2.10;;;16.80;94.50;;;;;;5012146;28;20036;-71
2021/08/21 07:32:33;;;;;;;3.15;2.15;;;16.80;94.40;;;;;;5027508;28;20029;-71
2021/08/21 07:34:58;;;;;;;4.45;2.00;;;16.90;93.90;;;;;;5021755;28;20084;-68
2021/08/21 07:37:24;;;;;;;5.07;2.25;;;16.90;93.90;;;;;;5024341;28;20109;-68
2021/08/21 07:39:50;;;;;;;3.70;1.98;;;17.00;93.90;;;;;;5023826;28;20108;-68
2021/08/21 07:42:16;;;;;;;7.03;2.47;;;17.10;94.00;;;;;;5027548;28;20446;-68
2021/08/21 07:44:41;;;;;;;3.33;2.20;;;17.10;93.00;;;;;;5031711;28;20495;-67
2021/08/21 07:47:07;;;;;;;3.58;1.77;;;17.10;92.90;;;;;;5030106;28;20479;-67
2021/08/21 07:49:33;;;;;;;3.47;1.95;;;17.20;93.20;;;;;;4992657;28;20033;-67
2021/08/21 07:51:59;;;;;;;6.40;2.20;;;17.20;93.00;;;;;;5031540;28;20037;-67
2021/08/21 07:54:24;;;;;;;2.50;2.00;;;17.20;92.90;;;;;;5031384;28;20033;-67
2021/08/21 07:56:50;;;;;;;3.45;1.67;;;17.20;92.70;;;;;;5029120;28;20033;-67
2021/08/21 07:59:16;;;;;;;2.45;1.80;;;17.30;92.90;;;;;;5030539;28;20061;-68
2021/08/21 08:01:41;;;;;;;4.93;2.10;;;17.40;93.20;;;;;;5029105;28;20029;-67
2021/08/21 08:04:07;;;;;;;2.85;1.50;;;17.40;92.40;;;;;;5028532;28;20064;-67
2021/08/21 08:06:33;;;;;;;3.10;1.48;;;17.50;92.40;;;;;;5028761;28;20033;-67
2021/08/21 08:08:58;;;;;;;3.58;1.60;;;17.50;92.60;;;;;;5026674;28;20037;-66
2021/08/21 08:11:24;;;;;;;3.75;1.80;;;17.60;92.20;;;;;;5029822;28;20045;-68
2021/08/21 08:13:50;;;;;;;4.28;1.75;;;17.60;92.30;;;;;;5029270;28;20041;-69
2021/08/21 08:16:15;;;;;;;1.60;1.40;;;17.70;92.20;;;;;;5029412;28;20037;-68
2021/08/21 08:18:41;;;;;;;3.38;1.27;;;17.70;92.30;;;;;;5028685;28;20414;-67
2021/08/21 08:21:07;;;;;;;1.75;1.58;;;17.80;92.30;;;;;;5029920;28;20535;-68
2021/08/21 08:23:32;;;;;;;2.53;1.38;;;17.80;92.20;;;;;;5028564;28;20034;-67
2021/08/21 08:25:58;;;;;;;3.00;1.90;;;17.90;91.60;;;;;;5025846;28;20049;-65
2021/08/21 08:28:24;;;;;;;4.43;1.48;;;17.90;90.80;;;;;;5030143;28;20086;-67
2021/08/21 08:30:50;;;;;;;3.75;1.50;;;18.00;91.00;;;;;;5031167;28;20029;-65
2021/08/21 08:33:16;;;;;;;5.30;1.30;;;18.00;91.00;;;;;;5028192;28;20422;-66
2021/08/21 08:35:41;;;;;;;2.92;1.50;;;18.00;90.40;;;;;;5029134;28;20045;-66
2021/08/21 08:38:07;;;;;;;3.20;1.73;;;18.00;90.00;;;;;;5029521;28;20033;-66
2021/08/21 08:40:33;;;;;;;3.10;1.60;;;18.10;90.70;;;;;;5027537;28;20025;-66
2021/08/21 08:43:03;;;;;;;3.78;1.60;;;18.20;91.00;;;;;;5028385;28;20060;-65
2021/08/21 08:45:29;;;;;;;3.28;1.50;;;18.40;91.10;;;;;;5033958;28;20037;-66
2021/08/21 08:47:55;;;;;;;2.60;1.27;;;18.40;90.30;;;;;;5029538;28;20471;-73
2021/08/21 08:50:21;;;;;;;3.28;1.60;;;18.40;90.80;;;;;;5022123;28;20030;-66
2021/08/21 08:52:47;;;;;;;3.92;1.33;;;18.50;90.50;;;;;;5026820;28;20030;-72
2021/08/21 08:55:12;;;;;;;2.38;1.33;;;18.50;89.90;;;;;;5031872;28;20156;-72
2021/08/21 08:57:43;;;;;;;4.05;1.73;;;18.60;90.40;;;;;;5033573;28;20025;-72
2021/08/21 09:00:21;;;;;;;2.30;1.70;;;18.60;90.00;;;;;;5031981;28;20036;-69
2021/08/21 09:02:49;;;;;;;2.53;1.20;;;18.70;90.50;;;;;;5028102;28;20040;-68
2021/08/21 09:05:16;;;;;;;2.83;1.50;;;18.80;90.50;;;;;;5028442;28;20033;-67
2021/08/21 09:07:51;;;;;;;1.90;1.33;;;18.90;90.10;;;;;;5025474;28;20091;-67
2021/08/21 09:10:24;;;;;;;1.85;1.40;;;19.00;90.00;;;;;;5029965;28;20056;-67
2021/08/21 09:13:08;;;;;;;3.13;1.63;;;19.00;89.70;;;;;;5030552;28;20026;-66
2021/08/21 09:15:36;;;;;;;2.50;1.20;;;19.10;88.80;;;;;;5029379;28;20021;-67
2021/08/21 09:18:16;;;;;;;3.55;1.30;;;19.10;87.70;;;;;;5012452;28;20029;-67
2021/08/21 09:20:48;;;;;;;6.03;1.60;;;19.10;87.70;;;;;;5029994;28;20040;-66
2021/08/21 09:23:16;;;;;;;3.10;1.40;;;19.10;87.50;;;;;;5025140;28;20061;-66
2021/08/21 09:25:43;;;;;;;3.65;1.33;;;19.20;87.30;;;;;;5025943;28;20032;-67
2021/08/21 09:28:15;;;;;;;2.65;1.17;;;19.20;86.50;;;;;;5028164;28;20521;-69
2021/08/21 09:30:41;;;;;;;3.17;1.13;;;19.20;86.50;;;;;;5028718;28;20495;-66
2021/08/21 09:33:07;;;;;;;3.67;1.10;;;19.20;86.10;;;;;;5029137;28;20033;-66
2021/08/21 09:35:33;;;;;;;2.25;1.00;;;19.20;86.90;;;;;;5028350;28;20029;-67
2021/08/21 09:38:00;;;;;;;1.77;1.27;;;19.30;87.30;;;;;;5027178;28;20486;-67
2021/08/21 09:40:31;;;;;;;2.85;1.10;;;19.40;87.30;;;;;;5029888;28;20037;-68
2021/08/21 09:42:57;;;;;;;3.08;1.30;;;19.40;86.40;;;;;;5029741;28;20483;-67
2021/08/21 09:45:27;;;;;;;2.38;1.63;;;19.40;85.50;;;;;;5027876;28;20030;-69
2021/08/21 09:48:06;;;;;;;1.52;0.85;;;19.40;86.40;;;;;;5023251;28;20032;-67
2021/08/21 09:50:34;;;;;;;2.88;1.10;;;19.50;86.40;;;;;;5026565;28;20084;-68
2021/08/21 09:53:05;;;;;;;1.98;1.17;;;19.50;86.00;;;;;;5029304;28;20029;-68
2021/08/21 09:55:32;;;;;;;1.90;1.30;;;19.60;86.50;;;;;;5027613;28;20459;-68
2021/08/21 09:58:03;;;;;;;1.83;1.10;;;19.70;85.10;;;;;;5027692;28;20098;-70
2021/08/21 10:00:30;;;;;;;3.38;1.50;;;19.80;85.90;;;;;;5028918;28;20052;-67
2021/08/21 10:02:59;;;;;;;2.85;1.42;;;19.90;85.90;;;;;;5026470;28;20514;-69
2021/08/21 10:05:26;;;;;;;2.22;1.20;;;20.00;85.20;;;;;;5027621;28;20033;-68
2021/08/21 10:07:58;;;;;;;2.65;1.00;;;20.10;85.70;;;;;;5028666;28;20033;-67
2021/08/21 10:10:33;;;;;;;3.08;1.35;;;20.20;84.10;;;;;;5028223;28;20491;-70
2021/08/21 10:13:07;;;;;;;2.90;1.00;;;20.20;82.70;;;;;;5026853;28;20034;-67
2021/08/21 10:15:36;;;;;;;2.00;1.10;;;20.20;82.80;;;;;;5026531;28;20033;-67
2021/08/21 10:18:02;;;;;;;2.45;1.17;;;20.30;82.10;;;;;;5027728;28;20057;-67
2021/08/21 10:20:28;;;;;;;2.47;1.10;;;20.30;82.20;;;;;;5028067;28;20036;-69
2021/08/21 10:22:55;;;;;;;2.38;1.00;;;20.30;81.80;;;;;;5008705;28;20033;-68
2021/08/21 10:25:25;;;;;;;2.33;0.88;;;20.20;79.80;;;;;;5026588;28;20487;-69
2021/08/21 10:27:57;;;;;;;1.50;0.80;;;20.10;80.50;;;;;;5028069;28;20040;-69
2021/08/21 10:30:26;;;;;;;0.80;0.60;;;20.00;79.50;;;;;;5008285;28;20029;-69
2021/08/21 10:33:00;;;;;;;2.83;1.02;;;20.00;80.90;;;;;;5026242;28;20025;-69
2021/08/21 10:35:54;;;;;;;1.80;1.10;;;20.00;81.50;;;;;;5026135;28;20064;-69
2021/08/21 10:38:30;;;;;;;1.98;1.17;;;20.00;81.50;;;;;;5023258;28;20079;-69
2021/08/21 10:40:57;;;;;;;3.33;1.00;;;20.10;83.00;;;;;;5007240;28;20031;-69
2021/08/21 10:43:42;;;;;;;1.77;1.10;;;20.10;83.00;;;;;;5025457;28;20112;-69
2021/08/21 10:46:08;;;;;;;1.85;1.20;;;20.10;82.10;;;;;;5026821;28;20021;-69
2021/08/21 10:48:37;;;;;;;1.65;1.00;;;20.10;81.80;;;;;;5025478;28;20079;-70
2021/08/21 10:51:06;;;;;;;1.38;0.88;;;20.10;81.10;;;;;;5026636;28;20026;-69
2021/08/21 10:53:35;;;;;;;1.40;1.10;;;20.20;80.10;;;;;;5009444;28;20030;-69
2021/08/21 10:56:04;;;;;;;2.47;1.25;;;20.40;81.30;;;;;;5026379;28;20467;-69
2021/08/21 10:58:31;;;;;;;2.05;0.93;;;20.40;81.40;;;;;;5021648;28;20026;-69
2021/08/21 11:01:01;;;;;;;1.20;1.00;;;20.50;80.50;;;;;;5021854;28;20052;-69
2021/08/21 11:03:29;;;;;;;1.20;0.95;;;20.50;80.10;;;;;;5025888;28;20013;-69
2021/08/21 11:06:09;;;;;;;1.85;1.42;;;20.50;81.00;;;;;;5010557;28;20087;-69
2021/08/21 11:08:35;;;;;;;1.77;1.20;;;20.60;80.20;;;;;;5009196;28;20037;-69
2021/08/21 11:11:10;;;;;;;2.75;1.00;;;20.50;78.70;;;;;;5023324;28;20313;-71
2021/08/21 11:14:08;;;;;;;1.27;0.98;;;20.80;80.20;;;;;;5006665;28;20030;-70
2021/08/21 11:17:00;;;;;;;1.52;0.85;;;21.00;81.20;;;;;;5029981;28;20063;-69
2021/08/21 11:19:31;;;;;;;1.10;0.80;;;21.60;80.80;;;;;;5030628;28;20038;-66
2021/08/21 11:22:10;;;;;;;1.83;1.20;;;22.30;80.30;;;;;;5032719;28;20124;-68
2021/08/21 11:24:36;;;;;;;3.67;1.35;;;23.60;73.30;;;;;;5033236;28;20041;-68
2021/08/21 11:27:30;;;;;;;4.22;1.08;;;26.00;66.40;;;;;;5030019;28;20036;-70
2021/08/21 11:30:09;;;;;;;1.33;0.90;;;28.70;55.70;;;;;;5011670;28;20045;-70
2021/08/21 11:32:58;;;;;;;3.88;1.35;;;30.20;52.10;;;;;;5015027;28;20033;-67
2021/08/21 11:35:54;;;;;;;1.60;1.00;;;32.30;44.70;;;;;;5029771;28;20057;-68
2021/08/21 11:38:34;;;;;;;1.20;1.00;;;33.70;42.70;;;;;;5031026;28;20030;-70
2021/08/21 11:41:12;;;;;;;1.55;0.98;;;34.40;42.30;;;;;;5015755;28;21633;-71
2021/08/21 11:43:41;;;;;;;1.38;0.90;;;34.50;40.30;;;;;;5031254;28;20037;-70
2021/08/21 11:46:07;;;;;;;2.00;1.03;;;34.70;39.50;;;;;;5030919;28;20128;-68
2021/08/21 11:48:39;;;;;;;1.23;1.10;;;35.30;39.90;;;;;;5025259;28;20029;-68
2021/08/21 11:51:06;;;;;;;1.45;0.90;;;35.50;40.40;;;;;;5014658;28;20030;-66
2021/08/21 11:53:42;;;;;;;1.75;1.20;;;35.50;39.20;;;;;;5029402;28;20065;-68
2021/08/21 11:56:10;;;;;;;1.55;1.10;;;35.30;39.10;;;;;;5030560;28;20033;-66
2021/08/21 11:58:43;;;;;;;1.80;1.00;;;34.80;39.50;;;;;;5031990;28;20866;-66
2021/08/21 12:01:11;;;;;;;2.47;1.48;;;34.50;39.90;;;;;;5029016;28;20025;-67
2021/08/21 12:06:29;;;;;;;1.40;1.10;;;33.00;39.70;;;;;;5030889;28;20399;-67
2021/08/21 12:09:12;;;;;;;1.25;1.00;;;32.20;41.70;;;;;;5032017;28;20044;-67
2021/08/21 12:11:40;;;;;;;1.13;0.90;;;31.90;42.30;;;;;;5026067;28;20029;-67
2021/08/21 12:14:06;;;;;;;1.10;0.90;;;31.30;43.60;;;;;;5030959;28;20034;-66
2021/08/21 12:16:33;;;;;;;1.77;1.20;;;30.70;42.90;;;;;;5028175;28;20095;-67
2021/08/21 12:19:00;;;;;;;2.05;1.05;;;30.30;44.90;;;;;;5032385;28;20091;-67
2021/08/21 12:21:26;;;;;;;1.70;1.08;;;29.80;46.50;;;;;;5029838;28;20538;-66
2021/08/21 12:23:54;;;;;;;3.15;1.00;;;29.20;47.40;;;;;;5011918;28;20048;-67
2021/08/21 12:26:38;;;;;;;1.40;0.93;;;28.70;47.50;;;;;;5027616;28;20025;-68
2021/08/21 12:29:05;;;;;;;2.55;1.00;;;28.10;47.60;;;;;;4998015;28;20036;-67
2021/08/21 12:31:39;;;;;;;1.80;1.00;;;27.60;48.50;;;;;;5030701;28;20044;-75
2021/08/21 12:34:07;;;;;;;3.08;1.55;;;27.20;48.60;;;;;;5029375;28;20029;-66
2021/08/21 12:36:41;;;;;;;1.40;1.10;;;26.80;47.40;;;;;;5028848;28;20104;-66
2021/08/21 12:39:13;;;;;;;1.65;1.05;;;26.30;51.00;;;;;;5026737;28;20130;-66
2021/08/21 12:41:54;;;;;;;1.38;1.00;;;26.00;52.60;;;;;;5032592;28;20415;-67
2021/08/21 12:44:35;;;;;;;1.83;0.95;;;25.60;53.80;;;;;;5031323;28;20025;-66
2021/08/21 12:47:05;;;;;;;1.52;1.10;;;25.60;53.20;;;;;;5029780;28;20036;-66
2021/08/21 12:49:38;;;;;;;0.82;0.82;;;25.80;51.70;;;;;;5031957;28;20040;-66
2021/08/21 12:52:22;;;;;;;2.63;1.00;;;26.10;53.00;;;;;;5029572;28;20033;-69